Time;durP1;ratioP1;P1;durP2;ratioP2;P2;SDS_P1;SDS_P2;PMS_P1;PMS_P2;Temp;Humidity;BMP_temperature;BMP_pressure;BME280_temperature;BME280_humidity;BME280_pressure;Samples;Min_cycle;Max_cycle;Signal;HPM_P1;HPM_P2
2022/09/03 00:01:27;;;;;;;3.22;1.77;;;;;;;16.41;100.00;100945.41;5288673;28;20504;-74
2022/09/03 00:04:33;;;;;;;3.30;1.45;;;;;;;16.39;100.00;100951.03;5288417;28;20077;-75
2022/09/03 00:07:10;;;;;;;6.28;2.10;;;;;;;16.38;100.00;100940.44;5288210;28;20032;-76
2022/09/03 00:09:48;;;;;;;3.97;2.10;;;;;;;16.38;100.00;100935.00;5287954;28;20024;-76
2022/09/03 00:12:40;;;;;;;5.75;2.30;;;;;;;16.35;100.00;100938.13;5275007;28;20027;-75
2022/09/03 00:15:16;;;;;;;4.88;1.73;;;;;;;16.33;100.00;100942.91;5286405;28;20024;-75
2022/09/03 00:18:05;;;;;;;;;;;;;;;16.30;100.00;100939.56;5288359;28;20036;-75
2022/09/03 00:20:57;;;;;;;2.60;1.75;;;;;;;16.27;100.00;100933.72;5276207;28;20361;-76
2022/09/03 00:23:30;;;;;;;10.40;2.25;;;;;;;16.28;100.00;100935.38;5287702;28;20050;-76
2022/09/03 00:26:05;;;;;;;2.63;1.73;;;;;;;16.26;100.00;100927.44;5287221;28;20059;-76
2022/09/03 00:28:44;;;;;;;4.30;2.00;;;;;;;16.27;100.00;100929.13;5287304;28;20035;-75
2022/09/03 00:31:23;;;;;;;3.92;1.98;;;;;;;16.28;100.00;100930.81;5288140;28;20479;-76
2022/09/03 00:34:01;;;;;;;5.78;2.13;;;;;;;16.29;100.00;100928.94;5287752;28;20027;-76
2022/09/03 00:36:43;;;;;;;2.85;2.08;;;;;;;16.28;100.00;100929.97;5281680;28;20108;-75
2022/09/03 00:39:17;;;;;;;3.30;2.20;;;;;;;16.27;100.00;100931.03;5281528;28;20020;-75
2022/09/03 00:42:23;;;;;;;8.50;2.40;;;;;;;16.25;100.00;100922.25;5288234;28;20032;-75
2022/09/03 00:45:10;;;;;;;5.05;2.28;;;;;;;16.25;100.00;100922.25;5273865;28;20023;-75
2022/09/03 00:47:57;;;;;;;3.67;1.88;;;;;;;16.21;100.00;100923.69;5287338;28;20400;-75
2022/09/03 00:50:59;;;;;;;7.63;2.33;;;;;;;16.16;100.00;100923.44;5287367;28;20041;-75
2022/09/03 00:53:34;;;;;;;7.78;2.22;;;;;;;16.09;100.00;100922.59;5287377;28;20078;-75
2022/09/03 00:56:30;;;;;;;4.15;2.00;;;;;;;16.03;100.00;100921.53;5286722;28;20362;-74
2022/09/03 00:59:08;;;;;;;6.45;2.00;;;;;;;16.00;100.00;100919.22;5287339;28;20430;-75
2022/09/03 01:02:02;;;;;;;2.45;1.77;;;;;;;15.98;100.00;100932.94;5287615;28;20038;-74
2022/09/03 01:05:04;;;;;;;5.72;1.90;;;;;;;15.97;100.00;100936.69;5275034;28;20549;-75
2022/09/03 01:07:41;;;;;;;9.48;2.47;;;;;;;15.99;100.00;100931.06;5274316;28;20110;-75
2022/09/03 01:10:19;;;;;;;7.25;1.83;;;;;;;15.99;100.00;100933.78;5273274;28;20039;-75
2022/09/03 01:12:58;;;;;;;7.97;2.33;;;;;;;16.01;100.00;100934.41;5287735;28;20032;-75
2022/09/03 01:16:06;;;;;;;5.25;2.08;;;;;;;16.02;100.00;100927.97;5286149;28;20497;-75
2022/09/03 01:18:43;;;;;;;3.42;1.88;;;;;;;16.03;100.00;100926.94;5286424;28;20035;-75
2022/09/03 01:21:51;;;;;;;6.78;1.77;;;;;;;16.07;100.00;100933.63;5287186;28;20015;-75
2022/09/03 01:24:35;;;;;;;6.25;1.80;;;;;;;16.08;100.00;100932.59;5277700;28;20039;-74
2022/09/03 01:27:42;;;;;;;3.75;1.70;;;;;;;16.12;100.00;100933.84;5287096;28;20030;-76
2022/09/03 01:30:17;;;;;;;4.25;1.92;;;;;;;16.12;100.00;100933.03;5279702;28;20031;-74
2022/09/03 01:33:25;;;;;;;2.78;1.88;;;;;;;16.11;100.00;100932.16;5269324;28;20273;-75
2022/09/03 01:36:20;;;;;;;11.30;2.00;;;;;;;16.05;100.00;100925.69;5285772;28;20035;-75
2022/09/03 01:39:03;;;;;;;5.50;2.00;;;;;;;16.03;100.00;100926.94;5274309;28;20027;-75
2022/09/03 01:45:06;;;;;;;6.85;2.40;;;;;;;15.98;100.00;100930.25;5273936;28;20115;-75
2022/09/03 01:48:02;;;;;;;3.92;1.90;;;;;;;15.98;100.00;100924.81;5286223;28;20023;-75
2022/09/03 01:50:47;;;;;;;6.93;1.70;;;;;;;15.98;100.00;100924.81;5286421;28;20034;-75
2022/09/03 01:53:37;;;;;;;3.88;1.73;;;;;;;15.97;100.00;100928.56;5288405;28;20036;-75
2022/09/03 01:56:45;;;;;;;3.15;2.00;;;;;;;15.98;100.00;100932.13;5286960;28;20019;-76
2022/09/03 01:59:38;;;;;;;5.13;1.80;;;;;;;16.01;100.00;100931.69;5286684;28;20313;-74
2022/09/03 02:02:19;;;;;;;2.90;1.85;;;;;;;16.05;100.00;100925.69;5286081;28;20072;-74
2022/09/03 02:05:07;;;;;;;3.35;1.90;;;;;;;16.09;100.00;100925.28;5285707;28;20038;-74
2022/09/03 02:07:42;;;;;;;6.00;2.03;;;;;;;16.13;100.00;100929.28;5274318;28;20031;-74
2022/09/03 02:10:15;;;;;;;;;;;;;;;16.16;100.00;100937.81;5286600;28;20032;-74
2022/09/03 02:13:06;;;;;;;3.45;2.30;;;;;;;16.20;100.00;100938.25;5286053;28;20551;-74
2022/09/03 02:15:42;;;;;;;5.43;2.08;;;;;;;16.24;100.00;100939.53;5284692;28;20111;-74
2022/09/03 02:18:17;;;;;;;2.30;1.83;;;;;;;16.26;100.00;100940.97;5286040;28;20031;-75
2022/09/03 02:20:51;;;;;;;5.35;1.95;;;;;;;16.29;100.00;100934.34;5285868;28;20350;-75
2022/09/03 02:23:27;;;;;;;4.68;1.90;;;;;;;16.31;100.00;100930.41;5286046;28;20081;-74
2022/09/03 02:26:11;;;;;;;3.58;1.95;;;;;;;16.34;100.00;100931.88;5285306;28;20025;-74
2022/09/03 02:28:41;;;;;;;4.55;2.00;;;;;;;16.34;100.00;100931.88;5285538;28;20027;-75
2022/09/03 02:31:12;;;;;;;8.95;2.33;;;;;;;16.35;100.00;100933.53;5285740;28;20130;-75
2022/09/03 02:33:46;;;;;;;4.50;1.65;;;;;;;16.36;100.00;100932.47;5286046;28;20500;-74
2022/09/03 02:36:20;;;;;;;9.52;2.72;;;;;;;16.38;100.00;100930.44;5282085;28;20015;-74
2022/09/03 02:38:50;;;;;;;3.33;1.60;;;;;;;16.38;100.00;100929.59;5285353;28;20022;-74
2022/09/03 02:41:21;;;;;;;3.20;1.90;;;;;;;16.37;100.00;100931.47;5285798;28;20020;-75
2022/09/03 02:44:11;;;;;;;3.20;1.70;;;;;;;16.37;100.00;100928.78;5285347;28;20104;-74
2022/09/03 02:46:47;;;;;;;4.85;1.45;;;;;;;16.37;100.00;100930.66;5267709;28;20028;-75
2022/09/03 02:49:18;;;;;;;4.45;1.60;;;;;;;16.36;100.00;100927.06;5285506;28;20020;-75
2022/09/03 02:51:49;;;;;;;5.85;1.80;;;;;;;16.36;100.00;100935.19;5285815;28;20058;-75
2022/09/03 02:54:19;;;;;;;3.75;1.70;;;;;;;16.36;100.00;100934.38;5284389;28;20114;-75
2022/09/03 02:56:51;;;;;;;2.95;2.00;;;;;;;16.36;100.00;100937.06;5285826;28;20024;-75
2022/09/03 02:59:21;;;;;;;6.60;2.30;;;;;;;16.36;100.00;100934.38;5285589;28;20023;-75
2022/09/03 03:01:52;;;;;;;2.65;1.88;;;;;;;16.35;100.00;100932.69;5285784;28;20441;-74
2022/09/03 03:04:23;;;;;;;2.88;1.75;;;;;;;16.35;100.00;100935.41;5285105;28;20519;-74
2022/09/03 03:06:53;;;;;;;2.95;1.77;;;;;;;16.33;100.00;100934.78;5282620;28;20042;-75
2022/09/03 03:09:24;;;;;;;4.35;2.22;;;;;;;16.28;100.00;100940.81;5274602;28;20078;-74
2022/09/03 03:11:54;;;;;;;6.47;1.80;;;;;;;16.19;100.00;100940.13;5285488;28;20489;-74
2022/09/03 03:14:25;;;;;;;2.40;1.70;;;;;;;16.13;100.00;100943.63;5284575;28;20032;-76
2022/09/03 03:16:55;;;;;;;6.35;2.75;;;;;;;16.10;100.00;100938.63;5285131;28;20084;-74
2022/09/03 03:19:26;;;;;;;6.55;2.10;;;;;;;16.10;100.00;100938.63;5285014;28;20107;-75
2022/09/03 03:21:56;;;;;;;4.97;2.00;;;;;;;16.10;100.00;100944.03;5285135;28;20061;-74
2022/09/03 03:24:27;;;;;;;1.98;1.77;;;;;;;16.09;100.00;100930.72;5284750;28;20102;-73
2022/09/03 03:26:58;;;;;;;5.85;2.00;;;;;;;16.09;100.00;100945.06;5285096;28;20500;-74
2022/09/03 03:29:29;;;;;;;5.18;2.30;;;;;;;16.07;100.00;100938.22;5285195;28;20072;-74
2022/09/03 03:31:59;;;;;;;4.47;2.10;;;;;;;16.04;100.00;100934.84;5285431;28;20068;-74
2022/09/03 03:34:29;;;;;;;3.40;1.90;;;;;;;16.01;100.00;100929.00;5284276;28;20041;-74
2022/09/03 03:37:00;;;;;;;4.80;2.00;;;;;;;16.00;100.00;100944.38;5285385;28;20115;-75
2022/09/03 03:39:31;;;;;;;3.10;1.80;;;;;;;15.98;100.00;100929.41;5285260;28;20025;-75
2022/09/03 03:42:01;;;;;;;2.67;1.60;;;;;;;15.96;100.00;100934.16;5285577;28;20477;-74
2022/09/03 03:44:32;;;;;;;3.75;2.03;;;;;;;15.94;100.00;100937.06;5283686;28;20103;-74
2022/09/03 03:47:04;;;;;;;3.13;2.38;;;;;;;15.94;100.00;100937.06;5285252;28;20023;-75
2022/09/03 03:49:35;;;;;;;3.08;2.20;;;;;;;15.95;100.00;100940.63;5285661;28;20033;-74
2022/09/03 03:52:06;;;;;;;3.80;2.50;;;;;;;15.96;100.00;100939.56;5289017;28;20102;-74
2022/09/03 03:54:36;;;;;;;5.82;2.67;;;;;;;15.98;100.00;100940.22;5287959;28;20024;-74
2022/09/03 03:57:06;;;;;;;2.88;1.92;;;;;;;16.00;100.00;100938.16;5288774;28;20435;-74
2022/09/03 03:59:37;;;;;;;4.82;1.95;;;;;;;16.02;100.00;100941.50;5289111;28;20028;-74
2022/09/03 04:02:07;;;;;;;6.20;2.22;;;;;;;16.01;100.00;100942.50;5289068;28;20373;-73
2022/09/03 04:04:38;;;;;;;6.07;2.30;;;;;;;15.99;100.00;100941.91;5287827;28;20024;-75
2022/09/03 04:07:09;;;;;;;3.58;2.47;;;;;;;15.95;100.00;100946.84;5288158;28;20046;-74
2022/09/03 04:09:39;;;;;;;4.88;2.35;;;;;;;15.91;100.00;100933.94;5288744;28;20403;-74
2022/09/03 04:12:09;;;;;;;5.55;2.38;;;;;;;15.88;100.00;100946.00;5274967;28;20027;-74
2022/09/03 04:14:40;;;;;;;4.70;2.25;;;;;;;15.84;100.00;100947.41;5288321;28;20031;-75
2022/09/03 04:17:11;;;;;;;7.15;2.10;;;;;;;15.83;100.00;100939.50;5288648;28;20024;-74
2022/09/03 04:19:41;;;;;;;6.90;2.35;;;;;;;15.80;100.00;100941.56;5288591;28;20380;-74
2022/09/03 04:22:14;;;;;;;3.70;2.13;;;;;;;15.80;100.00;100940.72;5288501;28;20026;-74
2022/09/03 04:24:45;;;;;;;6.57;2.10;;;;;;;15.80;100.00;100935.31;5287966;28;20028;-74
2022/09/03 04:27:15;;;;;;;6.55;2.10;;;;;;;15.82;100.00;100932.44;5288468;28;20130;-74
2022/09/03 04:29:45;;;;;;;3.53;2.25;;;;;;;15.83;100.00;100931.41;5287972;28;20030;-74
2022/09/03 04:35:05;;;;;;;7.40;2.15;;;;;;;15.88;100.00;100939.75;5277834;28;20473;-73
2022/09/03 04:37:36;;;;;;;3.90;2.22;;;;;;;15.88;100.00;100940.59;5288348;28;20030;-72
2022/09/03 04:40:07;;;;;;;7.05;1.92;;;;;;;15.89;100.00;100941.41;5288131;28;20437;-72
2022/09/03 04:42:37;;;;;;;3.47;2.17;;;;;;;15.90;100.00;100943.09;5287678;28;20037;-72
2022/09/03 04:45:09;;;;;;;4.70;2.30;;;;;;;15.89;100.00;100934.13;5287513;28;20027;-73
2022/09/03 04:47:40;;;;;;;3.13;2.00;;;;;;;15.89;100.00;100931.44;5287964;28;20030;-73
2022/09/03 04:50:11;;;;;;;4.53;2.28;;;;;;;15.91;100.00;100928.50;5269763;28;20106;-73
2022/09/03 04:52:42;;;;;;;3.55;2.63;;;;;;;15.92;100.00;100925.63;5287970;28;20493;-73
2022/09/03 04:55:12;;;;;;;5.78;2.58;;;;;;;16.03;100.00;100924.22;5286964;28;20270;-73
2022/09/03 04:57:43;;;;;;;5.78;2.05;;;;;;;16.02;100.00;100923.41;5288476;28;20110;-73
2022/09/03 05:00:16;;;;;;;4.88;2.20;;;;;;;16.00;100.00;100927.31;5288088;28;20422;-73
2022/09/03 05:02:48;;;;;;;6.53;2.50;;;;;;;16.00;100.00;100920.03;5288210;28;20023;-73
2022/09/03 05:05:18;;;;;;;5.55;2.30;;;;;;;16.02;100.00;100922.56;5287050;28;20063;-73
2022/09/03 05:07:49;;;;;;;4.25;2.47;;;;;;;16.02;100.00;100922.56;5287767;28;20251;-73
2022/09/03 05:10:20;;;;;;;8.07;2.85;;;;;;;16.02;100.00;100927.97;5288347;28;20020;-73
2022/09/03 05:13:03;;;;;;;7.78;3.00;;;;;;;16.03;100.00;100929.66;5287636;28;20166;-72
2022/09/03 05:15:34;;;;;;;8.98;2.75;;;;;;;16.01;100.00;100935.25;5286736;28;20023;-73
2022/09/03 05:18:04;;;;;;;7.15;2.60;;;;;;;15.97;100.00;100936.69;5287020;28;20080;-73
2022/09/03 05:20:35;;;;;;;4.07;2.17;;;;;;;15.96;100.00;100939.56;5287266;28;20496;-73
2022/09/03 05:23:06;;;;;;;7.70;2.63;;;;;;;15.93;100.00;100943.53;5287613;28;20027;-73
2022/09/03 05:25:37;;;;;;;8.52;2.45;;;;;;;15.93;100.00;100934.59;5286422;28;20020;-73
2022/09/03 05:28:07;;;;;;;5.25;2.67;;;;;;;15.95;100.00;100936.03;5287116;28;20027;-73
2022/09/03 05:30:38;;;;;;;9.35;2.45;;;;;;;16.00;100.00;100936.28;5286913;28;20039;-73
2022/09/03 05:33:08;;;;;;;7.30;2.42;;;;;;;16.07;100.00;100938.22;5287577;28;20031;-73
2022/09/03 05:35:40;;;;;;;6.43;2.47;;;;;;;16.14;100.00;100929.06;5286728;28;20019;-73
2022/09/03 05:38:10;;;;;;;5.18;2.03;;;;;;;16.21;100.00;100932.63;5287367;28;20378;-73
2022/09/03 05:40:41;;;;;;;3.25;1.95;;;;;;;16.27;100.00;100936.44;5286634;28;20081;-73
2022/09/03 05:43:12;;;;;;;3.95;2.03;;;;;;;16.33;100.00;100932.06;5286678;28;20055;-73
2022/09/03 05:45:42;;;;;;;5.72;2.00;;;;;;;16.39;100.00;100937.50;5286061;28;20134;-73
2022/09/03 05:48:13;;;;;;;5.45;2.20;;;;;;;16.44;100.00;100934.19;5286906;28;20117;-73
2022/09/03 05:50:43;;;;;;;3.17;2.00;;;;;;;16.49;100.00;100929.00;5286989;28;20448;-73
2022/09/03 05:53:15;;;;;;;3.80;2.05;;;;;;;16.54;100.00;100934.66;5286835;28;20058;-73
2022/09/03 05:55:55;;;;;;;5.72;2.08;;;;;;;16.58;100.00;100925.09;5285503;28;20019;-73
2022/09/03 05:58:45;;;;;;;2.65;2.10;;;;;;;16.61;100.00;100934.66;5268786;28;20038;-73
2022/09/03 06:01:18;;;;;;;4.25;2.25;;;;;;;16.67;100.00;100929.28;5265669;28;20028;-73
2022/09/03 06:04:06;;;;;;;4.13;2.15;;;;;;;16.72;100.00;100926.81;5282310;28;20027;-73
2022/09/03 06:06:39;;;;;;;4.43;2.10;;;;;;;16.79;100.00;100938.50;5286563;28;20497;-73
2022/09/03 06:09:12;;;;;;;3.83;2.08;;;;;;;16.86;100.00;100932.25;5286489;28;20389;-72
2022/09/03 06:11:44;;;;;;;5.05;1.90;;;;;;;16.91;100.00;100937.91;5272604;28;20055;-72
2022/09/03 06:14:15;;;;;;;6.32;2.20;;;;;;;16.97;100.00;100939.81;5285049;28;20023;-73
2022/09/03 06:16:48;;;;;;;4.05;2.08;;;;;;;17.05;100.00;100939.59;5286631;28;20049;-72
2022/09/03 06:19:19;;;;;;;3.53;2.33;;;;;;;17.13;100.00;100939.41;5286136;28;20108;-72
2022/09/03 06:21:49;;;;;;;11.52;2.50;;;;;;;17.21;100.00;100935.63;5286072;28;20112;-73
2022/09/03 06:27:07;;;;;;;5.30;1.73;;;;;;;17.36;100.00;100944.41;5286091;28;20512;-72
2022/09/03 06:29:38;;;;;;;5.78;2.17;;;;;;;17.53;100.00;100955.69;5285937;28;20039;-72
2022/09/03 06:32:09;;;;;;;4.15;2.00;;;;;;;18.11;100.00;100953.94;5286588;28;20392;-72
2022/09/03 06:34:39;;;;;;;5.28;1.90;;;;;;;18.72;100.00;100957.28;5285286;28;20026;-72
2022/09/03 06:37:10;;;;;;;6.78;2.20;;;;;;;18.95;100.00;100956.75;5285783;28;20431;-72
2022/09/03 06:39:40;;;;;;;2.95;2.10;;;;;;;19.00;100.00;100956.91;5285593;28;20027;-72
2022/09/03 06:42:11;;;;;;;3.65;2.10;;;;;;;18.96;100.00;100953.78;5286006;28;20023;-72
2022/09/03 06:44:44;;;;;;;8.57;2.05;;;;;;;18.96;100.00;100955.69;5266963;28;20024;-72
2022/09/03 06:47:14;;;;;;;9.32;2.05;;;;;;;18.97;100.00;100960.06;5286020;28;20050;-72
2022/09/03 06:49:45;;;;;;;4.05;2.05;;;;;;;18.98;100.00;100967.19;5285306;28;20102;-72
2022/09/03 06:52:15;;;;;;;3.97;1.95;;;;;;;19.00;100.00;100967.78;5285513;28;20027;-72
2022/09/03 06:54:47;;;;;;;4.68;1.92;;;;;;;18.95;100.00;100971.16;5285308;28;20031;-72
2022/09/03 06:57:17;;;;;;;8.57;1.70;;;;;;;18.92;100.00;100965.31;5285517;28;20043;-72
2022/09/03 06:59:48;;;;;;;4.85;1.95;;;;;;;18.95;100.00;100964.91;5285516;28;20443;-72
2022/09/03 07:02:21;;;;;;;2.70;1.80;;;;;;;19.04;100.00;100974.47;5267180;28;20140;-72
2022/09/03 07:04:52;;;;;;;5.95;2.17;;;;;;;19.19;100.00;100977.72;5284907;28;20118;-71
2022/09/03 07:07:22;;;;;;;5.30;1.67;;;;;;;19.33;100.00;100976.56;5285777;28;20027;-72
2022/09/03 07:09:53;;;;;;;6.50;1.95;;;;;;;19.55;100.00;100981.63;5285257;28;20039;-72
2022/09/03 07:12:23;;;;;;;5.85;2.20;;;;;;;19.79;100.00;100980.81;5285373;28;20492;-72
2022/09/03 07:14:53;;;;;;;5.95;2.03;;;;;;;20.06;100.00;100988.72;5283941;28;20027;-72
2022/09/03 07:17:24;;;;;;;5.45;2.50;;;;;;;20.35;100.00;100987.13;5285704;28;20092;-72
2022/09/03 07:19:54;;;;;;;3.42;2.00;;;;;;;20.65;100.00;100979.88;5285099;28;20020;-72
2022/09/03 07:22:25;;;;;;;3.60;1.77;;;;;;;21.07;100.00;100987.28;5285508;28;20027;-72
2022/09/03 07:24:55;;;;;;;5.10;1.90;;;;;;;21.42;100.00;100988.22;5287379;28;20106;-72
2022/09/03 07:27:26;;;;;;;5.43;2.10;;;;;;;21.72;97.86;100985.41;5289339;28;20031;-72
2022/09/03 07:29:57;;;;;;;7.10;2.13;;;;;;;21.81;95.60;100991.34;5272322;28;20032;-72
2022/09/03 07:32:28;;;;;;;3.35;1.70;;;;;;;22.00;95.09;100992.06;5290890;28;20489;-72
2022/09/03 07:34:58;;;;;;;5.00;1.50;;;;;;;22.18;93.49;100991.13;5288549;28;20165;-72
2022/09/03 07:37:28;;;;;;;5.88;1.70;;;;;;;22.34;92.71;100995.88;5288981;28;20020;-72
2022/09/03 07:39:59;;;;;;;11.23;1.92;;;;;;;22.54;91.81;100994.63;5288543;28;20034;-72
2022/09/03 07:42:30;;;;;;;6.95;1.80;;;;;;;22.74;91.87;100990.41;5271004;28;20031;-72
2022/09/03 07:45:04;;;;;;;6.53;2.05;;;;;;;23.16;88.75;100992.03;5288230;28;20098;-72
2022/09/03 07:47:36;;;;;;;6.30;1.70;;;;;;;23.90;83.12;101000.16;5289019;28;20027;-72
2022/09/03 07:50:06;;;;;;;4.75;1.55;;;;;;;24.23;81.54;100991.84;5288653;28;20039;-72
2022/09/03 07:52:37;;;;;;;5.93;1.77;;;;;;;24.53;81.03;100990.63;5289060;28;20019;-72
2022/09/03 07:55:08;;;;;;;4.40;1.48;;;;;;;24.44;77.75;100990.22;5288182;28;20107;-72
2022/09/03 07:57:38;;;;;;;4.32;1.45;;;;;;;24.23;79.53;100988.28;5288726;28;20118;-73
2022/09/03 08:00:11;;;;;;;3.75;1.67;;;;;;;24.62;81.75;100989.09;5288711;28;20450;-73
2022/09/03 08:02:42;;;;;;;8.35;1.70;;;;;;;25.14;77.18;100990.50;5275032;28;20139;-73
2022/09/03 08:05:12;;;;;;;7.20;1.70;;;;;;;25.93;73.30;100987.88;5287504;28;20208;-72
2022/09/03 08:07:43;;;;;;;3.33;1.30;;;;;;;26.48;69.02;100996.72;5288672;28;20034;-73
2022/09/03 08:10:15;;;;;;;2.03;1.45;;;;;;;26.95;65.34;101001.28;5287945;28;20073;-73
2022/09/03 08:12:45;;;;;;;4.30;1.30;;;;;;;26.92;63.04;100996.34;5288765;28;20027;-73
2022/09/03 08:15:16;;;;;;;3.90;1.60;;;;;;;26.42;64.30;100992.28;5287113;28;20027;-73
2022/09/03 08:17:46;;;;;;;4.93;1.70;;;;;;;25.83;66.82;100990.56;5288274;28;20501;-73
2022/09/03 08:20:17;;;;;;;5.82;1.50;;;;;;;24.77;69.61;100999.41;5288190;28;20019;-73
2022/09/03 08:22:47;;;;;;;3.17;1.52;;;;;;;24.15;72.07;100996.94;5288629;28;20028;-73
2022/09/03 08:25:18;;;;;;;6.75;1.42;;;;;;;23.72;75.78;101006.72;5287582;28;20093;-73
2022/09/03 08:27:48;;;;;;;4.07;1.40;;;;;;;23.81;76.82;101007.13;5287502;28;20500;-73
2022/09/03 08:30:20;;;;;;;3.38;1.48;;;;;;;24.48;75.39;101005.09;5287959;28;20032;-72
2022/09/03 08:32:50;;;;;;;7.95;2.00;;;;;;;24.79;73.24;101005.44;5288441;28;20564;-72
2022/09/03 08:35:21;;;;;;;3.53;1.52;;;;;;;24.81;71.11;101019.75;5286348;28;20110;-73
2022/09/03 08:37:52;;;;;;;3.05;1.55;;;;;;;24.37;72.62;101021.66;5287701;28;20024;-73
2022/09/03 08:40:23;;;;;;;5.32;1.77;;;;;;;23.89;74.00;101021.22;5287795;28;20049;-73
2022/09/03 08:43:16;;;;;;;3.78;1.80;;;;;;;23.70;76.43;101026.13;5288136;28;20020;-73
2022/09/03 08:45:46;;;;;;;3.58;1.60;;;;;;;23.91;77.53;101034.69;5287197;28;20530;-73
2022/09/03 08:48:21;;;;;;;4.65;1.77;;;;;;;24.47;75.90;101030.84;5287557;28;20035;-73
2022/09/03 08:50:58;;;;;;;2.92;1.40;;;;;;;24.94;73.02;101032.25;5287556;28;20077;-73
2022/09/03 08:53:50;;;;;;;4.05;1.80;;;;;;;25.22;72.82;101032.03;5269386;28;20554;-73
2022/09/03 08:56:26;;;;;;;4.25;1.42;;;;;;;25.72;73.46;101022.59;5275667;28;20260;-73
2022/09/03 08:59:00;;;;;;;6.70;1.70;;;;;;;26.38;69.83;101026.91;5286978;28;20496;-73
2022/09/03 09:01:45;;;;;;;8.93;1.75;;;;;;;26.68;69.32;101027.06;5287607;28;20023;-74
2022/09/03 09:04:33;;;;;;;4.10;2.00;;;;;;;26.84;67.38;101031.53;5273330;28;20031;-74
2022/09/03 09:07:37;;;;;;;5.00;1.80;;;;;;;27.07;69.49;101030.25;5286490;28;20076;-74
2022/09/03 09:10:11;;;;;;;2.13;1.40;;;;;;;27.19;67.33;101027.25;5287163;28;20103;-74
2022/09/03 09:12:56;;;;;;;4.10;1.70;;;;;;;27.07;66.18;101033.00;5269666;28;20019;-74
2022/09/03 09:15:48;;;;;;;3.70;1.70;;;;;;;26.96;67.63;101033.22;5286536;28;20265;-74
2022/09/03 09:18:54;;;;;;;5.00;2.13;;;;;;;26.82;67.64;101025.47;5287808;28;20130;-73
2022/09/03 09:21:45;;;;;;;4.55;1.88;;;;;;;27.67;68.62;101033.34;5287653;28;20031;-73
2022/09/03 09:24:22;;;;;;;5.55;1.90;;;;;;;28.02;67.47;101026.19;5286349;28;20488;-73
2022/09/03 09:26:58;;;;;;;7.50;2.13;;;;;;;28.32;65.50;101028.06;5287703;28;20059;-74
2022/09/03 09:29:32;;;;;;;5.47;2.40;;;;;;;28.56;64.04;101031.84;5286926;28;20019;-74
2022/09/03 09:32:06;;;;;;;4.95;1.90;;;;;;;28.69;64.29;101022.13;5269148;28;20042;-74
2022/09/03 09:34:37;;;;;;;3.95;2.15;;;;;;;28.93;64.23;101025.06;5286035;28;20046;-74
2022/09/03 09:37:27;;;;;;;3.13;1.95;;;;;;;28.98;63.32;101029.75;5287046;28;20022;-74
2022/09/03 09:39:59;;;;;;;4.22;1.88;;;;;;;29.12;62.95;101023.31;5273520;28;20076;-74
2022/09/03 09:42:30;;;;;;;2.78;1.80;;;;;;;29.03;63.30;101025.03;5284664;28;20078;-74
2022/09/03 09:45:08;;;;;;;4.63;2.42;;;;;;;29.24;65.75;101020.19;5274386;28;20020;-74
2022/09/03 09:47:40;;;;;;;5.22;1.77;;;;;;;29.56;62.90;101014.16;5286739;28;20049;-74
2022/09/03 09:50:28;;;;;;;3.22;1.90;;;;;;;29.66;63.71;101018.78;5286350;28;20039;-74
2022/09/03 09:53:16;;;;;;;4.03;2.33;;;;;;;29.80;62.94;101024.47;5286080;28;20388;-74
2022/09/03 09:55:49;;;;;;;3.83;1.98;;;;;;;29.25;61.90;101024.59;5285405;28;20077;-74
2022/09/03 09:58:22;;;;;;;8.60;2.15;;;;;;;29.22;63.41;101024.34;5286378;28;20034;-74
2022/09/03 10:00:55;;;;;;;2.75;2.55;;;;;;;29.19;63.68;101027.69;5268196;28;20027;-74
2022/09/03 10:03:26;;;;;;;6.22;2.20;;;;;;;29.12;63.92;101026.09;5286069;28;20098;-74
2022/09/03 10:09:19;;;;;;;5.93;2.38;;;;;;;29.00;63.45;101022.81;5286346;28;20030;-73
2022/09/03 10:12:03;;;;;;;5.28;2.55;;;;;;;28.97;65.20;101017.03;5286059;28;20027;-73
2022/09/03 10:14:41;;;;;;;9.77;2.50;;;;;;;28.81;64.72;101017.09;5267353;28;20540;-73
2022/09/03 10:17:28;;;;;;;4.88;2.28;;;;;;;28.08;67.13;101014.88;5286270;28;20050;-73
2022/09/03 10:23:03;;;;;;;5.05;2.47;;;;;;;27.57;71.63;101014.91;5286126;28;20042;-73
2022/09/03 10:25:39;;;;;;;3.65;2.42;;;;;;;27.66;70.73;101015.16;5285258;28;20496;-73
2022/09/03 10:28:10;;;;;;;2.90;2.00;;;;;;;27.65;71.68;101012.66;5285788;28;20035;-73
2022/09/03 10:30:48;;;;;;;4.30;1.95;;;;;;;27.85;71.92;101015.44;5285453;28;20035;-73
2022/09/03 10:33:38;;;;;;;7.50;2.35;;;;;;;27.83;71.38;101017.66;5286498;28;20028;-73
2022/09/03 10:36:18;;;;;;;3.97;2.25;;;;;;;27.94;70.90;101011.03;5285118;28;20028;-73
2022/09/03 10:39:03;;;;;;;4.22;2.13;;;;;;;28.13;70.42;101014.84;5285352;28;20479;-73
2022/09/03 10:41:58;;;;;;;9.18;2.58;;;;;;;27.73;73.07;101015.75;5272400;28;20480;-73
2022/09/03 10:44:52;;;;;;;5.60;2.28;;;;;;;27.85;73.22;101013.50;5284954;28;20477;-73
2022/09/03 10:47:39;;;;;;;4.85;2.60;;;;;;;28.03;71.66;101014.88;5285152;28;20031;-73
2022/09/03 10:50:16;;;;;;;4.43;2.20;;;;;;;28.22;73.36;101022.56;5285926;28;20079;-73
2022/09/03 10:53:21;;;;;;;4.18;2.40;;;;;;;28.11;71.52;101021.75;5285514;28;20442;-73
2022/09/03 10:56:01;;;;;;;5.30;2.35;;;;;;;27.93;74.36;101012.13;5284624;28;20023;-74
2022/09/03 10:58:56;;;;;;;4.63;2.50;;;;;;;27.93;73.63;101014.91;5271453;28;20032;-73
2022/09/03 11:01:52;;;;;;;7.60;2.20;;;;;;;27.52;75.66;101020.41;5285534;28;20396;-73
2022/09/03 11:04:49;;;;;;;4.38;2.50;;;;;;;27.69;76.29;101008.28;5272839;28;20540;-73
2022/09/03 11:07:24;;;;;;;3.78;2.10;;;;;;;27.78;76.75;101020.44;5285395;28;20141;-73
2022/09/03 11:09:56;;;;;;;9.80;2.45;;;;;;;27.75;77.89;101018.22;5285772;28;20376;-73
2022/09/03 11:12:34;;;;;;;4.93;2.72;;;;;;;27.88;76.61;101018.47;5285235;28;20039;-73
2022/09/03 11:15:06;;;;;;;5.30;2.28;;;;;;;28.22;76.12;101017.06;5285039;28;20068;-73
2022/09/03 11:17:41;;;;;;;3.97;2.30;;;;;;;28.38;75.17;101004.88;5285705;28;20057;-72
2022/09/03 11:20:29;;;;;;;7.50;2.88;;;;;;;28.70;74.64;101011.91;5285066;28;20023;-73
2022/09/03 11:23:03;;;;;;;5.57;2.30;;;;;;;28.88;72.43;101008.53;5285157;28;20027;-73
2022/09/03 11:25:40;;;;;;;5.78;2.55;;;;;;;28.71;73.44;101008.03;5284370;28;20538;-73
2022/09/03 11:28:44;;;;;;;6.00;2.47;;;;;;;28.85;74.15;101006.31;5285116;28;20023;-73
2022/09/03 11:31:39;;;;;;;4.72;2.50;;;;;;;29.18;71.85;101007.53;5285198;28;20030;-73
2022/09/03 11:34:29;;;;;;;3.45;2.85;;;;;;;29.00;72.60;101008.19;5284197;28;20027;-73
2022/09/03 11:37:18;;;;;;;5.68;2.90;;;;;;;28.86;71.82;101005.19;5274108;28;20019;-73
2022/09/03 11:40:07;;;;;;;3.63;2.10;;;;;;;28.94;73.99;100998.28;5285314;28;20036;-73
2022/09/03 11:42:41;;;;;;;4.30;3.00;;;;;;;29.21;71.69;100995.06;5285148;28;20035;-73
2022/09/03 11:45:30;;;;;;;5.38;2.72;;;;;;;29.40;71.25;100999.63;5284309;28;20481;-73
2022/09/03 11:48:00;;;;;;;7.03;3.30;;;;;;;29.29;71.70;100991.72;5285241;28;20100;-73
2022/09/03 11:50:33;;;;;;;4.30;2.80;;;;;;;29.11;70.86;100991.25;5267065;28;20140;-73
2022/09/03 11:53:27;;;;;;;6.43;2.80;;;;;;;29.09;71.66;100995.44;5285052;28;20027;-73
2022/09/03 11:56:11;;;;;;;5.07;2.53;;;;;;;28.99;72.18;100984.47;5270146;28;20020;-74
2022/09/03 11:58:42;;;;;;;5.57;3.00;;;;;;;28.86;73.55;100994.16;5285098;28;20028;-73
2022/09/03 12:01:17;;;;;;;6.97;2.60;;;;;;;28.85;72.08;100992.50;5285240;28;20023;-74
2022/09/03 12:03:52;;;;;;;4.25;2.63;;;;;;;28.97;72.07;100986.66;5284601;28;20035;-73
2022/09/03 12:07:01;;;;;;;4.97;3.72;;;;;;;28.88;71.75;100987.25;5284107;28;20024;-73
2022/09/03 12:09:58;;;;;;;4.00;2.90;;;;;;;29.20;71.76;100982.38;5274197;28;20630;-73
2022/09/03 12:12:53;;;;;;;4.43;3.20;;;;;;;28.97;73.23;100978.38;5288223;28;20047;-73
2022/09/03 12:16:02;;;;;;;5.70;3.15;;;;;;;28.71;72.10;100997.81;5287721;28;20424;-73
2022/09/03 12:18:35;;;;;;;4.82;2.90;;;;;;;29.05;70.55;100986.88;5269869;28;20031;-73
2022/09/03 12:21:07;;;;;;;4.95;3.13;;;;;;;29.44;71.68;100986.06;5288108;28;20032;-74
2022/09/03 12:23:41;;;;;;;9.05;4.07;;;;;;;29.44;72.01;100977.78;5288272;28;20106;-74